SCELSCAT

Guest
Details From SCEL - Arturo Merino Benitez Intl
To SCAT - DESIERTO DE ATACAMA
Flight Number -
Tags decoded
Created
Modified
Stats Distance 368 nm / 682 km
Max Altitude 0 ft / 0 m
Waypoints 3
Social Downloads 0
Likes 0
Share VATSIM

Download

Looking for another format? Having issues loading an existing format? Contact us
Advertisement - Login to hide

Notes

Requested: SCEL DONTI UQ802 DAT SCAT Unmatched points: DONTI UQ802

Route

SCEL DAT SCAT

ID Type Via Altitude Latitude Longitude Leg Dist Tot Dist Heading (true) Name
O SCEL APT - 0 ft / 0 m -33.38978˚ -70.79437˚ - 0 nm - Arturo Merino Benitez Intl
DAT VOR - 0 ft / 0 m -27.27944˚ -70.77611˚ 366 nm 366 nm 0° / 0° ATACAMA VOR-DME
O SCAT APT - 0 ft / 0 m -27.26125˚ -70.77922˚ 1 nm 368 nm 351° / 351° DESIERTO DE ATACAMA

Altitude Profile

Advertisement - Login to hide

Weather


0- 5 10 15 20 25 30 35+ Temperature / ° C

Clouds and Precipitation
Forecast for 2017-12-13 18:00 UTC. Updated an hour ago

Ground ~20,000 ft ~40,000 ft Winds

SCEL

Details ICAO SCEL (SCL)
Name Arturo Merino Benitez Intl
Region Chile
Timezone America/Santiago (UTC-3.0)
Stats Elevation 1,550 ft / 472 m (AMSL)
Location -33.389775° -70.794366°
Runways 2
Magnetic Variation 1.802° E

METAR

SCEL 131800Z 17008KT 120V230 CAVOK 27/06 Q1018 NOSIG

Decode

TAF

TAF SCEL 131612Z 1318/1418 19010KT CAVOK TX27/1319Z TN13/1410Z BECMG 1401/1403 VRB03KT 8000 TEMPO 1406/1412 00000KT 5000 BR BECMG 1413/1415 19007KT CAVOK

Decode

Departure Runways

ID Width Length Bearing (true) Bearing (mag) Surface Threshold Offset Overrun Length
17L 180 ft / 55 m 10,523 ft / 3,207 m 177.43° 175.63° Asphalt 0 ft / 0 m 0 ft / 0 m
17R 148 ft / 45 m 12,504 ft / 3,811 m 177.44° 175.64° Asphalt 0 ft / 0 m 0 ft / 0 m
35L 148 ft / 45 m 12,504 ft / 3,811 m 357.44° 355.64° Asphalt 0 ft / 0 m 0 ft / 0 m
35R 180 ft / 55 m 10,523 ft / 3,207 m 357.43° 355.63° Asphalt 1,800 ft / 549 m 0 ft / 0 m

SCAT

Details ICAO SCAT
Name DESIERTO DE ATACAMA
Region Chile
Timezone America/Santiago (UTC-3.0)
Stats Elevation 670 ft / 204 m (AMSL)
Location -27.261246° -70.779220°
Runways 1
Magnetic Variation 1.436° W

METAR

Not found

TAF

TAF SCAT 131603Z 1318/1418 24012KT 9999 FEW025 TX22/1318Z TN14/1406Z BECMG 1404/1406 21004KT BKN016 BECMG 1406/1408 33004KT BECMG 1414/ 1416 26010KT SCT022

Decode

Destination Runways

ID Width Length Bearing (true) Bearing (mag) Surface Threshold Offset Overrun Length
17 148 ft / 45 m 7,214 ft / 2,199 m 175.35° 176.79° Asphalt 0 ft / 0 m 195 ft / 59 m
35 148 ft / 45 m 7,214 ft / 2,199 m 355.35° 356.79° Asphalt 0 ft / 0 m 195 ft / 59 m

Approach Navaids

Runway Type Ident Frequency Range Bearing (true) Bearing (mag) Slope Elevation
17 Localiser IDAT 110.10 MHz 18 nm / 33 km 175.50° 176.93° - 670 ft / 204 m (AMSL)
17 Glidescope IDAT 110.10 MHz 10 nm / 19 km 175.35° 176.79° 3.00° 628 ft / 191 m (AMSL)

Popular Alternatives